Raugust, Washington
Current Conditions -  °F | °C
As of 4:52 AM on Friday 24 Oct 2014 (Local Time) from KMWH Reporting Station
Broken Clouds Broken Clouds  
Wind Chill:   Ceiling: 11000
Heat Index:   Visibility: 10mi
Dew Point:   Wind: 6mph
Humidity: 86%   Direction: 150°SSE
Pressure: 30.03"   Gusts: NA
Location:  47.1758°N, 119.289°W
Report Text: KMWH 241152Z AUTO 15005KT 10SM BKN110 06/04 A3003 RMK AO2 SLP171 70001 T00610039 10100 20050 57001 TSNO
Loading
Personal Weather Stations






























Interactive Weather Map
Tropical Storm Tracking
New forecast layout! Learn more

10-Day Weather Forecast

Advertisements
Track Severe Weather on mobile